sensor_id;sensor_type;location;lat;lon;timestamp;temperature;humidity
60860;DHT22;46694;54.382;9.708;2023-02-12T00:02:12;8.00;99.90
60860;DHT22;46694;54.382;9.708;2023-02-12T00:04:51;8.00;99.90
60860;DHT22;46694;54.382;9.708;2023-02-12T00:07:31;8.00;99.90
60860;DHT22;46694;54.382;9.708;2023-02-12T00:10:10;8.00;99.90
60860;DHT22;46694;54.382;9.708;2023-02-12T00:12:54;8.00;99.90
60860;DHT22;46694;54.382;9.708;2023-02-12T00:15:36;8.00;99.90
60860;DHT22;46694;54.382;9.708;2023-02-12T00:18:17;8.00;99.90
60860;DHT22;46694;54.382;9.708;2023-02-12T00:20:59;8.00;99.90
60860;DHT22;46694;54.382;9.708;2023-02-12T00:23:39;8.00;99.90
60860;DHT22;46694;54.382;9.708;2023-02-12T00:26:20;8.00;99.90
60860;DHT22;46694;54.382;9.708;2023-02-12T00:29:00;8.00;99.90
60860;DHT22;46694;54.382;9.708;2023-02-12T00:31:40;8.00;99.90
60860;DHT22;46694;54.382;9.708;2023-02-12T00:34:20;8.00;99.90
60860;DHT22;46694;54.382;9.708;2023-02-12T00:36:59;8.00;99.90
60860;DHT22;46694;54.382;9.708;2023-02-12T00:39:39;8.00;99.90
60860;DHT22;46694;54.382;9.708;2023-02-12T00:42:19;8.00;99.90
60860;DHT22;46694;54.382;9.708;2023-02-12T00:44:58;8.00;99.90
60860;DHT22;46694;54.382;9.708;2023-02-12T00:47:38;8.00;99.90
60860;DHT22;46694;54.382;9.708;2023-02-12T00:50:17;8.00;99.90
60860;DHT22;46694;54.382;9.708;2023-02-12T00:52:57;8.10;99.90
60860;DHT22;46694;54.382;9.708;2023-02-12T00:55:37;8.00;99.90
60860;DHT22;46694;54.382;9.708;2023-02-12T00:58:16;8.10;99.90
60860;DHT22;46694;54.382;9.708;2023-02-12T01:00:56;8.10;99.90
60860;DHT22;46694;54.382;9.708;2023-02-12T01:03:35;8.00;99.90
60860;DHT22;46694;54.382;9.708;2023-02-12T01:06:15;8.00;99.90
60860;DHT22;46694;54.382;9.708;2023-02-12T01:08:54;8.10;99.90
60860;DHT22;46694;54.382;9.708;2023-02-12T01:11:34;8.00;99.90
60860;DHT22;46694;54.382;9.708;2023-02-12T01:14:13;8.00;99.90
60860;DHT22;46694;54.382;9.708;2023-02-12T01:16:53;8.00;99.90
60860;DHT22;46694;54.382;9.708;2023-02-12T01:19:33;8.00;99.90
60860;DHT22;46694;54.382;9.708;2023-02-12T01:22:12;8.00;99.90
60860;DHT22;46694;54.382;9.708;2023-02-12T01:24:52;7.90;99.90
60860;DHT22;46694;54.382;9.708;2023-02-12T01:27:32;7.90;99.90
60860;DHT22;46694;54.382;9.708;2023-02-12T01:30:12;7.90;99.90
60860;DHT22;46694;54.382;9.708;2023-02-12T01:32:55;8.00;99.90
60860;DHT22;46694;54.382;9.708;2023-02-12T01:35:37;8.00;99.90
60860;DHT22;46694;54.382;9.708;2023-02-12T01:38:16;8.00;99.90
60860;DHT22;46694;54.382;9.708;2023-02-12T01:43:43;7.90;99.90
60860;DHT22;46694;54.382;9.708;2023-02-12T01:46:24;7.90;99.90
60860;DHT22;46694;54.382;9.708;2023-02-12T01:49:07;7.90;99.90
60860;DHT22;46694;54.382;9.708;2023-02-12T01:52:01;7.90;99.90
60860;DHT22;46694;54.382;9.708;2023-02-12T01:54:46;7.90;99.90
60860;DHT22;46694;54.382;9.708;2023-02-12T01:57:27;7.90;99.90
60860;DHT22;46694;54.382;9.708;2023-02-12T02:00:20;7.90;99.90
60860;DHT22;46694;54.382;9.708;2023-02-12T02:03:01;7.90;99.90
60860;DHT22;46694;54.382;9.708;2023-02-12T02:05:45;8.00;99.90
60860;DHT22;46694;54.382;9.708;2023-02-12T02:08:28;7.90;99.90
60860;DHT22;46694;54.382;9.708;2023-02-12T02:11:09;8.00;99.90
60860;DHT22;46694;54.382;9.708;2023-02-12T02:14:07;7.90;99.90
60860;DHT22;46694;54.382;9.708;2023-02-12T02:20:45;7.90;99.90
60860;DHT22;46694;54.382;9.708;2023-02-12T02:23:50;7.90;99.90
60860;DHT22;46694;54.382;9.708;2023-02-12T02:33:32;7.90;99.90
60860;DHT22;46694;54.382;9.708;2023-02-12T02:36:26;7.90;99.90
60860;DHT22;46694;54.382;9.708;2023-02-12T02:51:07;8.00;99.90
60860;DHT22;46694;54.382;9.708;2023-02-12T02:54:14;7.90;99.90
60860;DHT22;46694;54.382;9.708;2023-02-12T02:57:06;7.90;99.90
60860;DHT22;46694;54.382;9.708;2023-02-12T02:59:53;7.90;99.90
60860;DHT22;46694;54.382;9.708;2023-02-12T03:02:37;7.90;99.90
60860;DHT22;46694;54.382;9.708;2023-02-12T03:05:24;7.80;99.90
60860;DHT22;46694;54.382;9.708;2023-02-12T03:08:28;7.80;99.90
60860;DHT22;46694;54.382;9.708;2023-02-12T03:14:21;7.80;99.90
60860;DHT22;46694;54.382;9.708;2023-02-12T03:20:05;7.80;99.90
60860;DHT22;46694;54.382;9.708;2023-02-12T03:22:57;7.70;99.90
60860;DHT22;46694;54.382;9.708;2023-02-12T03:25:54;7.70;99.90
60860;DHT22;46694;54.382;9.708;2023-02-12T03:28:37;7.70;99.90
60860;DHT22;46694;54.382;9.708;2023-02-12T03:31:40;7.60;99.90
60860;DHT22;46694;54.382;9.708;2023-02-12T03:50:23;7.70;99.90
60860;DHT22;46694;54.382;9.708;2023-02-12T03:53:14;7.70;99.90
60860;DHT22;46694;54.382;9.708;2023-02-12T03:55:59;7.70;99.90
60860;DHT22;46694;54.382;9.708;2023-02-12T03:58:45;7.70;99.90
60860;DHT22;46694;54.382;9.708;2023-02-12T04:01:26;7.60;99.90
60860;DHT22;46694;54.382;9.708;2023-02-12T04:04:07;7.60;99.90
60860;DHT22;46694;54.382;9.708;2023-02-12T04:06:48;7.60;99.90
60860;DHT22;46694;54.382;9.708;2023-02-12T04:09:30;7.60;99.90
60860;DHT22;46694;54.382;9.708;2023-02-12T04:24:35;7.60;99.90
60860;DHT22;46694;54.382;9.708;2023-02-12T04:30:36;7.60;99.90
60860;DHT22;46694;54.382;9.708;2023-02-12T04:33:21;7.60;99.90
60860;DHT22;46694;54.382;9.708;2023-02-12T04:36:07;7.60;99.90
60860;DHT22;46694;54.382;9.708;2023-02-12T04:38:56;7.50;99.90
60860;DHT22;46694;54.382;9.708;2023-02-12T04:41:38;7.50;99.90
60860;DHT22;46694;54.382;9.708;2023-02-12T04:44:26;7.50;99.90
60860;DHT22;46694;54.382;9.708;2023-02-12T04:47:12;7.50;99.90
60860;DHT22;46694;54.382;9.708;2023-02-12T04:49:53;7.50;99.90
60860;DHT22;46694;54.382;9.708;2023-02-12T04:52:33;7.50;99.90
60860;DHT22;46694;54.382;9.708;2023-02-12T04:55:13;7.50;99.90
60860;DHT22;46694;54.382;9.708;2023-02-12T04:57:53;7.50;99.90
60860;DHT22;46694;54.382;9.708;2023-02-12T05:00:33;7.50;99.90
60860;DHT22;46694;54.382;9.708;2023-02-12T05:03:12;7.50;99.90
60860;DHT22;46694;54.382;9.708;2023-02-12T05:05:52;7.50;99.90
60860;DHT22;46694;54.382;9.708;2023-02-12T05:08:32;7.50;99.90
60860;DHT22;46694;54.382;9.708;2023-02-12T05:11:11;7.50;99.90
60860;DHT22;46694;54.382;9.708;2023-02-12T05:13:51;7.50;99.90
60860;DHT22;46694;54.382;9.708;2023-02-12T05:16:31;7.50;99.90
60860;DHT22;46694;54.382;9.708;2023-02-12T05:19:11;7.50;99.90
60860;DHT22;46694;54.382;9.708;2023-02-12T05:21:50;7.50;99.90
60860;DHT22;46694;54.382;9.708;2023-02-12T05:24:30;7.50;99.90
60860;DHT22;46694;54.382;9.708;2023-02-12T05:27:09;7.50;99.90
60860;DHT22;46694;54.382;9.708;2023-02-12T05:29:49;7.50;99.90
60860;DHT22;46694;54.382;9.708;2023-02-12T05:32:28;7.50;99.90
60860;DHT22;46694;54.382;9.708;2023-02-12T05:35:08;7.50;99.90
60860;DHT22;46694;54.382;9.708;2023-02-12T05:37:47;7.50;99.90
60860;DHT22;46694;54.382;9.708;2023-02-12T05:40:27;7.50;99.90
60860;DHT22;46694;54.382;9.708;2023-02-12T05:43:07;7.50;99.90
60860;DHT22;46694;54.382;9.708;2023-02-12T05:45:46;7.50;99.90
60860;DHT22;46694;54.382;9.708;2023-02-12T05:48:26;7.50;99.90
60860;DHT22;46694;54.382;9.708;2023-02-12T05:51:12;7.50;99.90
60860;DHT22;46694;54.382;9.708;2023-02-12T05:53:59;7.50;99.90
60860;DHT22;46694;54.382;9.708;2023-02-12T05:56:43;7.50;99.90
60860;DHT22;46694;54.382;9.708;2023-02-12T05:59:24;7.50;99.90
60860;DHT22;46694;54.382;9.708;2023-02-12T06:02:04;7.50;99.90
60860;DHT22;46694;54.382;9.708;2023-02-12T06:04:44;7.50;99.90
60860;DHT22;46694;54.382;9.708;2023-02-12T06:07:23;7.40;99.90
60860;DHT22;46694;54.382;9.708;2023-02-12T06:10:03;7.40;99.90
60860;DHT22;46694;54.382;9.708;2023-02-12T06:12:43;7.40;99.90
60860;DHT22;46694;54.382;9.708;2023-02-12T06:15:23;7.50;99.90
60860;DHT22;46694;54.382;9.708;2023-02-12T06:18:02;7.40;99.90
60860;DHT22;46694;54.382;9.708;2023-02-12T06:20:42;7.40;99.90
60860;DHT22;46694;54.382;9.708;2023-02-12T06:23:22;7.40;99.90
60860;DHT22;46694;54.382;9.708;2023-02-12T06:26:02;7.40;99.90
60860;DHT22;46694;54.382;9.708;2023-02-12T06:28:43;7.40;99.90
60860;DHT22;46694;54.382;9.708;2023-02-12T06:31:26;7.40;99.90
60860;DHT22;46694;54.382;9.708;2023-02-12T06:34:10;7.40;99.90
60860;DHT22;46694;54.382;9.708;2023-02-12T06:36:50;7.40;99.90
60860;DHT22;46694;54.382;9.708;2023-02-12T06:39:30;7.40;99.90
60860;DHT22;46694;54.382;9.708;2023-02-12T06:42:10;7.40;99.90
60860;DHT22;46694;54.382;9.708;2023-02-12T06:44:49;7.40;99.90
60860;DHT22;46694;54.382;9.708;2023-02-12T06:47:29;7.40;99.90
60860;DHT22;46694;54.382;9.708;2023-02-12T06:50:09;7.30;99.90
60860;DHT22;46694;54.382;9.708;2023-02-12T06:52:48;7.40;99.90
60860;DHT22;46694;54.382;9.708;2023-02-12T06:55:28;7.40;99.90
60860;DHT22;46694;54.382;9.708;2023-02-12T06:58:08;7.40;99.90
60860;DHT22;46694;54.382;9.708;2023-02-12T07:00:47;7.40;99.90
60860;DHT22;46694;54.382;9.708;2023-02-12T07:03:26;7.40;99.90
60860;DHT22;46694;54.382;9.708;2023-02-12T07:06:06;7.40;99.90
60860;DHT22;46694;54.382;9.708;2023-02-12T07:08:46;7.40;99.90
60860;DHT22;46694;54.382;9.708;2023-02-12T07:11:28;7.40;99.90
60860;DHT22;46694;54.382;9.708;2023-02-12T07:14:14;7.40;99.90
60860;DHT22;46694;54.382;9.708;2023-02-12T07:16:54;7.40;99.90
60860;DHT22;46694;54.382;9.708;2023-02-12T07:19:34;7.40;99.90
60860;DHT22;46694;54.382;9.708;2023-02-12T07:22:14;7.40;99.90
60860;DHT22;46694;54.382;9.708;2023-02-12T07:24:54;7.40;99.90
60860;DHT22;46694;54.382;9.708;2023-02-12T07:27:36;7.40;99.90
60860;DHT22;46694;54.382;9.708;2023-02-12T07:30:15;7.40;99.90
60860;DHT22;46694;54.382;9.708;2023-02-12T07:32:55;7.40;99.90
60860;DHT22;46694;54.382;9.708;2023-02-12T07:35:35;7.50;99.90
60860;DHT22;46694;54.382;9.708;2023-02-12T07:38:14;7.40;99.90
60860;DHT22;46694;54.382;9.708;2023-02-12T07:41:04;7.40;99.90
60860;DHT22;46694;54.382;9.708;2023-02-12T07:43:47;7.40;99.90
60860;DHT22;46694;54.382;9.708;2023-02-12T07:46:33;7.50;99.90
60860;DHT22;46694;54.382;9.708;2023-02-12T07:49:21;7.40;99.90
60860;DHT22;46694;54.382;9.708;2023-02-12T07:52:01;7.50;99.90
60860;DHT22;46694;54.382;9.708;2023-02-12T07:54:40;7.50;99.90
60860;DHT22;46694;54.382;9.708;2023-02-12T07:57:20;7.50;99.90
60860;DHT22;46694;54.382;9.708;2023-02-12T08:00:00;7.50;99.90
60860;DHT22;46694;54.382;9.708;2023-02-12T08:02:40;7.50;99.90
60860;DHT22;46694;54.382;9.708;2023-02-12T08:05:19;7.50;99.90
60860;DHT22;46694;54.382;9.708;2023-02-12T08:07:59;7.50;99.90
60860;DHT22;46694;54.382;9.708;2023-02-12T08:10:39;7.60;99.90
60860;DHT22;46694;54.382;9.708;2023-02-12T08:13:18;7.60;99.90
60860;DHT22;46694;54.382;9.708;2023-02-12T08:16:04;7.60;99.90
60860;DHT22;46694;54.382;9.708;2023-02-12T08:18:45;7.70;99.90
60860;DHT22;46694;54.382;9.708;2023-02-12T08:21:27;7.70;99.90
60860;DHT22;46694;54.382;9.708;2023-02-12T08:24:09;7.70;99.90
60860;DHT22;46694;54.382;9.708;2023-02-12T08:26:49;7.70;99.90
60860;DHT22;46694;54.382;9.708;2023-02-12T08:29:29;7.80;99.90
60860;DHT22;46694;54.382;9.708;2023-02-12T08:32:09;7.80;99.90
60860;DHT22;46694;54.382;9.708;2023-02-12T08:34:52;7.90;99.90
60860;DHT22;46694;54.382;9.708;2023-02-12T08:37:31;7.90;99.90
60860;DHT22;46694;54.382;9.708;2023-02-12T08:40:11;7.90;99.90
60860;DHT22;46694;54.382;9.708;2023-02-12T08:42:51;8.00;99.90
60860;DHT22;46694;54.382;9.708;2023-02-12T08:45:31;8.10;99.90
60860;DHT22;46694;54.382;9.708;2023-02-12T08:48:11;8.10;99.90
60860;DHT22;46694;54.382;9.708;2023-02-12T08:50:50;8.10;99.90
60860;DHT22;46694;54.382;9.708;2023-02-12T08:53:30;8.10;99.90
60860;DHT22;46694;54.382;9.708;2023-02-12T08:56:16;8.10;99.90
60860;DHT22;46694;54.382;9.708;2023-02-12T08:58:57;8.10;99.90
60860;DHT22;46694;54.382;9.708;2023-02-12T09:01:38;8.20;99.90
60860;DHT22;46694;54.382;9.708;2023-02-12T09:04:25;8.20;99.90
60860;DHT22;46694;54.382;9.708;2023-02-12T09:07:05;8.20;99.90
60860;DHT22;46694;54.382;9.708;2023-02-12T09:09:44;8.20;99.90
60860;DHT22;46694;54.382;9.708;2023-02-12T09:12:24;8.20;99.90
60860;DHT22;46694;54.382;9.708;2023-02-12T09:15:04;8.20;99.90
60860;DHT22;46694;54.382;9.708;2023-02-12T09:17:44;8.30;99.90
60860;DHT22;46694;54.382;9.708;2023-02-12T09:20:23;8.40;99.90
60860;DHT22;46694;54.382;9.708;2023-02-12T09:23:03;8.40;99.90
60860;DHT22;46694;54.382;9.708;2023-02-12T09:25:45;8.50;99.90
60860;DHT22;46694;54.382;9.708;2023-02-12T09:28:25;8.50;99.90
60860;DHT22;46694;54.382;9.708;2023-02-12T09:31:16;8.50;99.90
60860;DHT22;46694;54.382;9.708;2023-02-12T09:34:01;8.60;99.90
60860;DHT22;46694;54.382;9.708;2023-02-12T09:36:42;8.60;99.90
60860;DHT22;46694;54.382;9.708;2023-02-12T09:39:22;8.60;99.90
60860;DHT22;46694;54.382;9.708;2023-02-12T09:53:31;8.70;99.90
60860;DHT22;46694;54.382;9.708;2023-02-12T09:56:17;8.80;99.90
60860;DHT22;46694;54.382;9.708;2023-02-12T09:59:04;8.90;99.90
60860;DHT22;46694;54.382;9.708;2023-02-12T10:01:45;8.90;99.90
60860;DHT22;46694;54.382;9.708;2023-02-12T10:04:25;8.90;99.90
60860;DHT22;46694;54.382;9.708;2023-02-12T10:20:05;9.30;99.90
60860;DHT22;46694;54.382;9.708;2023-02-12T10:29:22;9.50;99.90
60860;DHT22;46694;54.382;9.708;2023-02-12T10:32:24;9.50;99.90
60860;DHT22;46694;54.382;9.708;2023-02-12T10:35:15;9.50;99.90
60860;DHT22;46694;54.382;9.708;2023-02-12T10:40:46;9.30;99.90
60860;DHT22;46694;54.382;9.708;2023-02-12T10:43:25;9.40;99.90
60860;DHT22;46694;54.382;9.708;2023-02-12T10:46:05;9.30;99.90
60860;DHT22;46694;54.382;9.708;2023-02-12T10:48:47;9.40;99.90
60860;DHT22;46694;54.382;9.708;2023-02-12T10:54:45;9.40;99.90
60860;DHT22;46694;54.382;9.708;2023-02-12T10:57:29;9.30;99.90
60860;DHT22;46694;54.382;9.708;2023-02-12T11:00:32;9.40;99.90
60860;DHT22;46694;54.382;9.708;2023-02-12T11:03:21;9.50;99.90
60860;DHT22;46694;54.382;9.708;2023-02-12T11:06:31;9.50;99.90
60860;DHT22;46694;54.382;9.708;2023-02-12T11:09:42;9.50;99.90
60860;DHT22;46694;54.382;9.708;2023-02-12T11:12:35;9.50;99.90
60860;DHT22;46694;54.382;9.708;2023-02-12T11:15:24;9.60;99.90
60860;DHT22;46694;54.382;9.708;2023-02-12T11:18:06;9.70;99.90
60860;DHT22;46694;54.382;9.708;2023-02-12T11:21:00;9.80;99.90
60860;DHT22;46694;54.382;9.708;2023-02-12T11:23:43;9.80;99.90
60860;DHT22;46694;54.382;9.708;2023-02-12T11:26:26;9.70;99.90
60860;DHT22;46694;54.382;9.708;2023-02-12T11:29:21;9.70;99.90
60860;DHT22;46694;54.382;9.708;2023-02-12T11:32:05;9.80;99.90
60860;DHT22;46694;54.382;9.708;2023-02-12T11:35:13;9.80;99.90
60860;DHT22;46694;54.382;9.708;2023-02-12T11:38:23;9.70;99.90
60860;DHT22;46694;54.382;9.708;2023-02-12T11:44:27;9.70;99.90
60860;DHT22;46694;54.382;9.708;2023-02-12T11:47:24;9.70;99.90
60860;DHT22;46694;54.382;9.708;2023-02-12T11:50:17;9.70;99.90
60860;DHT22;46694;54.382;9.708;2023-02-12T11:53:08;9.80;99.90
60860;DHT22;46694;54.382;9.708;2023-02-12T11:56:03;9.80;99.90
60860;DHT22;46694;54.382;9.708;2023-02-12T11:58:45;9.80;99.90
60860;DHT22;46694;54.382;9.708;2023-02-12T12:01:34;9.80;99.90
60860;DHT22;46694;54.382;9.708;2023-02-12T12:04:15;9.90;99.90
60860;DHT22;46694;54.382;9.708;2023-02-12T12:09:57;9.80;99.90
60860;DHT22;46694;54.382;9.708;2023-02-12T12:12:48;9.80;99.90
60860;DHT22;46694;54.382;9.708;2023-02-12T12:15:33;9.70;99.90
60860;DHT22;46694;54.382;9.708;2023-02-12T12:18:47;9.80;99.90
60860;DHT22;46694;54.382;9.708;2023-02-12T12:31:58;9.80;99.90
60860;DHT22;46694;54.382;9.708;2023-02-12T12:34:39;9.90;99.90
60860;DHT22;46694;54.382;9.708;2023-02-12T12:40:53;10.00;99.90
60860;DHT22;46694;54.382;9.708;2023-02-12T12:43:57;9.90;99.90
60860;DHT22;46694;54.382;9.708;2023-02-12T13:03:14;9.70;99.90
60860;DHT22;46694;54.382;9.708;2023-02-12T13:09:43;9.60;99.90
60860;DHT22;46694;54.382;9.708;2023-02-12T13:18:25;9.50;99.90
60860;DHT22;46694;54.382;9.708;2023-02-12T13:24:30;9.40;99.90
60860;DHT22;46694;54.382;9.708;2023-02-12T13:27:31;9.40;99.90
60860;DHT22;46694;54.382;9.708;2023-02-12T13:30:45;9.40;99.90
60860;DHT22;46694;54.382;9.708;2023-02-12T13:33:50;9.40;99.90
60860;DHT22;46694;54.382;9.708;2023-02-12T13:36:35;9.40;99.90
60860;DHT22;46694;54.382;9.708;2023-02-12T13:44:52;9.50;99.90
60860;DHT22;46694;54.382;9.708;2023-02-12T13:51:09;9.40;99.90
60860;DHT22;46694;54.382;9.708;2023-02-12T13:54:00;9.40;99.90
60860;DHT22;46694;54.382;9.708;2023-02-12T13:56:56;9.30;99.90
60860;DHT22;46694;54.382;9.708;2023-02-12T13:59:41;9.20;99.90
60860;DHT22;46694;54.382;9.708;2023-02-12T14:08:02;9.30;99.90
60860;DHT22;46694;54.382;9.708;2023-02-12T14:11:03;9.40;99.90
60860;DHT22;46694;54.382;9.708;2023-02-12T14:13:52;9.30;99.90
60860;DHT22;46694;54.382;9.708;2023-02-12T14:16:35;9.40;99.90
60860;DHT22;46694;54.382;9.708;2023-02-12T14:37:11;9.20;99.90
60860;DHT22;46694;54.382;9.708;2023-02-12T14:49:27;9.20;99.90
60860;DHT22;46694;54.382;9.708;2023-02-12T14:52:22;9.10;99.90
60860;DHT22;46694;54.382;9.708;2023-02-12T14:55:38;9.00;99.90
60860;DHT22;46694;54.382;9.708;2023-02-12T14:58:23;9.00;99.90
60860;DHT22;46694;54.382;9.708;2023-02-12T15:01:04;9.00;99.90
60860;DHT22;46694;54.382;9.708;2023-02-12T15:03:49;9.00;99.90
60860;DHT22;46694;54.382;9.708;2023-02-12T15:06:42;9.00;99.90
60860;DHT22;46694;54.382;9.708;2023-02-12T15:09:36;9.00;99.90
60860;DHT22;46694;54.382;9.708;2023-02-12T15:12:34;8.90;99.90
60860;DHT22;46694;54.382;9.708;2023-02-12T15:15:31;8.90;99.90
60860;DHT22;46694;54.382;9.708;2023-02-12T15:21:21;8.90;99.90
60860;DHT22;46694;54.382;9.708;2023-02-12T15:24:09;8.90;99.90
60860;DHT22;46694;54.382;9.708;2023-02-12T15:26:56;8.90;99.90
60860;DHT22;46694;54.382;9.708;2023-02-12T15:29:51;8.90;99.90
60860;DHT22;46694;54.382;9.708;2023-02-12T15:32:34;8.90;99.90
60860;DHT22;46694;54.382;9.708;2023-02-12T15:35:25;8.90;99.90
60860;DHT22;46694;54.382;9.708;2023-02-12T15:38:06;8.90;99.90
60860;DHT22;46694;54.382;9.708;2023-02-12T15:40:54;8.90;99.90
60860;DHT22;46694;54.382;9.708;2023-02-12T15:43:39;8.90;99.90
60860;DHT22;46694;54.382;9.708;2023-02-12T15:46:19;8.90;99.90
60860;DHT22;46694;54.382;9.708;2023-02-12T15:48:58;8.90;99.90
60860;DHT22;46694;54.382;9.708;2023-02-12T15:51:39;8.90;99.90
60860;DHT22;46694;54.382;9.708;2023-02-12T15:54:19;8.80;99.90
60860;DHT22;46694;54.382;9.708;2023-02-12T15:57:00;8.80;99.90
60860;DHT22;46694;54.382;9.708;2023-02-12T15:59:40;8.80;99.90
60860;DHT22;46694;54.382;9.708;2023-02-12T16:02:24;8.70;99.90
60860;DHT22;46694;54.382;9.708;2023-02-12T16:05:06;8.70;99.90
60860;DHT22;46694;54.382;9.708;2023-02-12T16:07:46;8.70;99.90
60860;DHT22;46694;54.382;9.708;2023-02-12T16:10:26;8.70;99.90
60860;DHT22;46694;54.382;9.708;2023-02-12T16:13:05;8.70;99.90
60860;DHT22;46694;54.382;9.708;2023-02-12T16:16:06;8.70;99.90
60860;DHT22;46694;54.382;9.708;2023-02-12T16:19:17;8.70;99.90
60860;DHT22;46694;54.382;9.708;2023-02-12T16:22:08;8.70;99.90
60860;DHT22;46694;54.382;9.708;2023-02-12T16:24:53;8.70;99.90
60860;DHT22;46694;54.382;9.708;2023-02-12T16:27:34;8.60;99.90
60860;DHT22;46694;54.382;9.708;2023-02-12T16:30:36;8.60;99.90
60860;DHT22;46694;54.382;9.708;2023-02-12T16:39:04;8.60;99.90
60860;DHT22;46694;54.382;9.708;2023-02-12T16:41:54;8.60;99.90
60860;DHT22;46694;54.382;9.708;2023-02-12T16:44:34;8.60;99.90
60860;DHT22;46694;54.382;9.708;2023-02-12T16:47:24;8.50;99.90
60860;DHT22;46694;54.382;9.708;2023-02-12T16:50:04;8.50;99.90
60860;DHT22;46694;54.382;9.708;2023-02-12T16:52:43;8.50;99.90
60860;DHT22;46694;54.382;9.708;2023-02-12T16:55:23;8.50;99.90
60860;DHT22;46694;54.382;9.708;2023-02-12T16:58:03;8.50;99.90
60860;DHT22;46694;54.382;9.708;2023-02-12T17:00:42;8.50;99.90
60860;DHT22;46694;54.382;9.708;2023-02-12T17:03:22;8.50;99.90
60860;DHT22;46694;54.382;9.708;2023-02-12T17:06:02;8.50;99.90
60860;DHT22;46694;54.382;9.708;2023-02-12T17:08:42;8.50;99.90
60860;DHT22;46694;54.382;9.708;2023-02-12T17:11:23;8.50;99.90
60860;DHT22;46694;54.382;9.708;2023-02-12T17:14:03;8.50;99.90
60860;DHT22;46694;54.382;9.708;2023-02-12T17:16:43;8.40;99.90
60860;DHT22;46694;54.382;9.708;2023-02-12T17:19:22;8.50;99.90
60860;DHT22;46694;54.382;9.708;2023-02-12T17:22:03;8.50;99.90
60860;DHT22;46694;54.382;9.708;2023-02-12T17:24:44;8.50;99.90
60860;DHT22;46694;54.382;9.708;2023-02-12T17:27:29;8.40;99.90
60860;DHT22;46694;54.382;9.708;2023-02-12T17:30:13;8.40;99.90
60860;DHT22;46694;54.382;9.708;2023-02-12T17:32:54;8.40;99.90
60860;DHT22;46694;54.382;9.708;2023-02-12T17:35:35;8.40;99.90
60860;DHT22;46694;54.382;9.708;2023-02-12T17:38:15;8.40;99.90
60860;DHT22;46694;54.382;9.708;2023-02-12T17:40:55;8.30;99.90
60860;DHT22;46694;54.382;9.708;2023-02-12T17:43:35;8.30;99.90
60860;DHT22;46694;54.382;9.708;2023-02-12T17:46:24;8.30;99.90
60860;DHT22;46694;54.382;9.708;2023-02-12T17:49:05;8.30;99.90
60860;DHT22;46694;54.382;9.708;2023-02-12T17:51:44;8.20;99.90
60860;DHT22;46694;54.382;9.708;2023-02-12T17:54:24;8.20;99.90
60860;DHT22;46694;54.382;9.708;2023-02-12T17:57:03;8.20;99.90
60860;DHT22;46694;54.382;9.708;2023-02-12T17:59:43;8.20;99.90
60860;DHT22;46694;54.382;9.708;2023-02-12T18:02:23;8.20;99.90
60860;DHT22;46694;54.382;9.708;2023-02-12T18:05:03;8.20;99.90
60860;DHT22;46694;54.382;9.708;2023-02-12T18:07:42;8.20;99.90
60860;DHT22;46694;54.382;9.708;2023-02-12T18:10:23;8.20;99.90
60860;DHT22;46694;54.382;9.708;2023-02-12T18:13:02;8.20;99.90
60860;DHT22;46694;54.382;9.708;2023-02-12T18:15:42;8.10;99.90
60860;DHT22;46694;54.382;9.708;2023-02-12T18:18:21;8.10;99.90
60860;DHT22;46694;54.382;9.708;2023-02-12T18:21:06;8.10;99.90
60860;DHT22;46694;54.382;9.708;2023-02-12T18:23:49;8.10;99.90
60860;DHT22;46694;54.382;9.708;2023-02-12T18:26:28;8.10;99.90
60860;DHT22;46694;54.382;9.708;2023-02-12T18:29:08;8.10;99.90
60860;DHT22;46694;54.382;9.708;2023-02-12T18:31:48;8.10;99.90
60860;DHT22;46694;54.382;9.708;2023-02-12T18:34:27;8.10;99.90
60860;DHT22;46694;54.382;9.708;2023-02-12T18:37:08;8.10;99.90
60860;DHT22;46694;54.382;9.708;2023-02-12T18:39:48;8.10;99.90
60860;DHT22;46694;54.382;9.708;2023-02-12T18:42:28;8.10;99.90
60860;DHT22;46694;54.382;9.708;2023-02-12T18:45:10;8.10;99.90
60860;DHT22;46694;54.382;9.708;2023-02-12T18:47:50;8.10;99.90
60860;DHT22;46694;54.382;9.708;2023-02-12T18:50:30;8.10;99.90
60860;DHT22;46694;54.382;9.708;2023-02-12T18:53:09;8.10;99.90
60860;DHT22;46694;54.382;9.708;2023-02-12T18:55:49;8.10;99.90
60860;DHT22;46694;54.382;9.708;2023-02-12T18:58:28;8.00;99.90
60860;DHT22;46694;54.382;9.708;2023-02-12T19:01:17;8.00;99.90
60860;DHT22;46694;54.382;9.708;2023-02-12T19:03:59;7.90;99.90
60860;DHT22;46694;54.382;9.708;2023-02-12T19:06:42;8.00;99.90
60860;DHT22;46694;54.382;9.708;2023-02-12T19:09:26;8.00;99.90
60860;DHT22;46694;54.382;9.708;2023-02-12T19:12:06;8.00;99.90
60860;DHT22;46694;54.382;9.708;2023-02-12T19:14:45;7.90;99.90
60860;DHT22;46694;54.382;9.708;2023-02-12T19:17:25;7.90;99.90
60860;DHT22;46694;54.382;9.708;2023-02-12T19:20:05;7.90;99.90
60860;DHT22;46694;54.382;9.708;2023-02-12T19:22:44;7.90;99.90
60860;DHT22;46694;54.382;9.708;2023-02-12T19:25:24;7.90;99.90
60860;DHT22;46694;54.382;9.708;2023-02-12T19:28:04;7.90;99.90
60860;DHT22;46694;54.382;9.708;2023-02-12T19:30:43;7.90;99.90
60860;DHT22;46694;54.382;9.708;2023-02-12T19:33:23;7.90;99.90
60860;DHT22;46694;54.382;9.708;2023-02-12T19:36:02;7.90;99.90
60860;DHT22;46694;54.382;9.708;2023-02-12T19:38:43;7.90;99.90
60860;DHT22;46694;54.382;9.708;2023-02-12T19:41:24;7.90;99.90
60860;DHT22;46694;54.382;9.708;2023-02-12T19:44:07;7.90;99.90
60860;DHT22;46694;54.382;9.708;2023-02-12T19:46:49;7.90;99.90
60860;DHT22;46694;54.382;9.708;2023-02-12T19:49:29;7.90;99.90
60860;DHT22;46694;54.382;9.708;2023-02-12T19:52:08;7.90;99.90
60860;DHT22;46694;54.382;9.708;2023-02-12T19:54:48;7.90;99.90
60860;DHT22;46694;54.382;9.708;2023-02-12T19:57:27;7.90;99.90
60860;DHT22;46694;54.382;9.708;2023-02-12T20:00:08;7.90;99.90
60860;DHT22;46694;54.382;9.708;2023-02-12T20:02:48;7.90;99.90
60860;DHT22;46694;54.382;9.708;2023-02-12T20:05:27;7.90;99.90
60860;DHT22;46694;54.382;9.708;2023-02-12T20:08:07;7.90;99.90
60860;DHT22;46694;54.382;9.708;2023-02-12T20:10:46;7.90;99.90
60860;DHT22;46694;54.382;9.708;2023-02-12T20:13:26;7.90;99.90
60860;DHT22;46694;54.382;9.708;2023-02-12T20:16:09;7.90;99.90
60860;DHT22;46694;54.382;9.708;2023-02-12T20:18:52;7.80;99.90
60860;DHT22;46694;54.382;9.708;2023-02-12T20:21:33;7.80;99.90
60860;DHT22;46694;54.382;9.708;2023-02-12T20:24:12;7.80;99.90
60860;DHT22;46694;54.382;9.708;2023-02-12T20:26:53;7.80;99.90
60860;DHT22;46694;54.382;9.708;2023-02-12T20:29:33;7.80;99.90
60860;DHT22;46694;54.382;9.708;2023-02-12T20:32:12;7.80;99.90
60860;DHT22;46694;54.382;9.708;2023-02-12T20:34:51;7.80;99.90
60860;DHT22;46694;54.382;9.708;2023-02-12T20:37:31;7.80;99.90
60860;DHT22;46694;54.382;9.708;2023-02-12T20:40:11;7.80;99.90
60860;DHT22;46694;54.382;9.708;2023-02-12T20:42:50;7.80;99.90
60860;DHT22;46694;54.382;9.708;2023-02-12T20:45:29;7.80;99.90
60860;DHT22;46694;54.382;9.708;2023-02-12T20:48:09;7.80;99.90
60860;DHT22;46694;54.382;9.708;2023-02-12T20:50:49;7.70;99.90